sensor_id;sensor_type;location;lat;lon;timestamp;P1;durP1;ratioP1;P2;durP2;ratioP2
52508;SDS011;38420;53.150;6.370;2023-02-15T00:00:14;119.88;;;67.57;;
52508;SDS011;38420;53.150;6.370;2023-02-15T00:02:40;119.40;;;64.07;;
52508;SDS011;38420;53.150;6.370;2023-02-15T00:05:06;91.63;;;53.22;;
52508;SDS011;38420;53.150;6.370;2023-02-15T00:07:32;105.63;;;61.55;;
52508;SDS011;38420;53.150;6.370;2023-02-15T00:09:57;101.97;;;60.92;;
52508;SDS011;38420;53.150;6.370;2023-02-15T00:12:23;90.90;;;54.50;;
52508;SDS011;38420;53.150;6.370;2023-02-15T00:14:48;97.55;;;56.80;;
52508;SDS011;38420;53.150;6.370;2023-02-15T00:17:14;90.75;;;55.15;;
52508;SDS011;38420;53.150;6.370;2023-02-15T00:19:40;121.75;;;63.50;;
52508;SDS011;38420;53.150;6.370;2023-02-15T00:22:05;111.28;;;64.45;;
52508;SDS011;38420;53.150;6.370;2023-02-15T00:24:31;111.68;;;59.92;;
52508;SDS011;38420;53.150;6.370;2023-02-15T00:26:57;113.18;;;62.92;;
52508;SDS011;38420;53.150;6.370;2023-02-15T00:29:23;103.35;;;56.95;;
52508;SDS011;38420;53.150;6.370;2023-02-15T00:31:49;100.68;;;56.60;;
52508;SDS011;38420;53.150;6.370;2023-02-15T00:34:16;95.32;;;53.10;;
52508;SDS011;38420;53.150;6.370;2023-02-15T00:36:44;134.25;;;60.92;;
52508;SDS011;38420;53.150;6.370;2023-02-15T00:39:10;98.63;;;49.50;;
52508;SDS011;38420;53.150;6.370;2023-02-15T00:41:37;108.07;;;50.75;;
52508;SDS011;38420;53.150;6.370;2023-02-15T00:44:02;167.43;;;60.95;;
52508;SDS011;38420;53.150;6.370;2023-02-15T00:46:29;332.77;;;71.82;;
52508;SDS011;38420;53.150;6.370;2023-02-15T00:48:55;550.42;;;103.00;;
52508;SDS011;38420;53.150;6.370;2023-02-15T00:51:21;523.78;;;104.00;;
52508;SDS011;38420;53.150;6.370;2023-02-15T00:53:47;454.08;;;87.15;;
52508;SDS011;38420;53.150;6.370;2023-02-15T00:56:12;627.80;;;107.05;;
52508;SDS011;38420;53.150;6.370;2023-02-15T00:58:38;398.67;;;79.55;;
52508;SDS011;38420;53.150;6.370;2023-02-15T01:01:05;218.40;;;65.30;;
52508;SDS011;38420;53.150;6.370;2023-02-15T01:03:32;224.13;;;69.03;;
52508;SDS011;38420;53.150;6.370;2023-02-15T01:05:59;179.23;;;63.03;;
52508;SDS011;38420;53.150;6.370;2023-02-15T01:08:25;436.33;;;92.50;;
52508;SDS011;38420;53.150;6.370;2023-02-15T01:10:50;170.20;;;64.40;;
52508;SDS011;38420;53.150;6.370;2023-02-15T01:13:16;424.92;;;87.82;;
52508;SDS011;38420;53.150;6.370;2023-02-15T01:15:43;256.30;;;77.72;;
52508;SDS011;38420;53.150;6.370;2023-02-15T01:18:09;185.18;;;71.07;;
52508;SDS011;38420;53.150;6.370;2023-02-15T01:20:36;127.70;;;54.33;;
52508;SDS011;38420;53.150;6.370;2023-02-15T01:23:05;342.55;;;79.75;;
52508;SDS011;38420;53.150;6.370;2023-02-15T01:25:33;240.25;;;66.18;;
52508;SDS011;38420;53.150;6.370;2023-02-15T01:28:00;481.92;;;89.07;;
52508;SDS011;38420;53.150;6.370;2023-02-15T01:30:26;327.05;;;75.97;;
52508;SDS011;38420;53.150;6.370;2023-02-15T01:32:52;132.82;;;55.15;;
52508;SDS011;38420;53.150;6.370;2023-02-15T01:35:18;125.63;;;54.85;;
52508;SDS011;38420;53.150;6.370;2023-02-15T01:37:43;129.60;;;55.63;;
52508;SDS011;38420;53.150;6.370;2023-02-15T01:40:13;193.30;;;67.97;;
52508;SDS011;38420;53.150;6.370;2023-02-15T01:42:42;116.50;;;56.85;;
52508;SDS011;38420;53.150;6.370;2023-02-15T01:50:39;115.25;;;54.30;;
52508;SDS011;38420;53.150;6.370;2023-02-15T01:53:12;124.00;;;55.83;;
52508;SDS011;38420;53.150;6.370;2023-02-15T01:55:43;127.55;;;56.30;;
52508;SDS011;38420;53.150;6.370;2023-02-15T01:58:14;99.05;;;51.08;;
52508;SDS011;38420;53.150;6.370;2023-02-15T02:00:40;104.32;;;50.95;;
52508;SDS011;38420;53.150;6.370;2023-02-15T02:03:06;91.38;;;47.20;;
52508;SDS011;38420;53.150;6.370;2023-02-15T02:05:32;109.70;;;52.05;;
52508;SDS011;38420;53.150;6.370;2023-02-15T02:07:58;94.60;;;47.78;;
52508;SDS011;38420;53.150;6.370;2023-02-15T02:10:25;103.25;;;51.67;;
52508;SDS011;38420;53.150;6.370;2023-02-15T02:12:52;114.80;;;53.42;;
52508;SDS011;38420;53.150;6.370;2023-02-15T02:15:23;112.90;;;54.57;;
52508;SDS011;38420;53.150;6.370;2023-02-15T02:23:16;102.07;;;52.75;;
52508;SDS011;38420;53.150;6.370;2023-02-15T02:34:38;90.53;;;48.25;;
52508;SDS011;38420;53.150;6.370;2023-02-15T02:37:20;88.65;;;48.60;;
52508;SDS011;38420;53.150;6.370;2023-02-15T02:40:04;96.13;;;50.10;;
52508;SDS011;38420;53.150;6.370;2023-02-15T02:42:41;97.05;;;49.03;;
52508;SDS011;38420;53.150;6.370;2023-02-15T02:45:28;90.10;;;47.70;;
52508;SDS011;38420;53.150;6.370;2023-02-15T02:48:24;73.88;;;41.15;;
52508;SDS011;38420;53.150;6.370;2023-02-15T02:50:52;78.10;;;45.38;;
52508;SDS011;38420;53.150;6.370;2023-02-15T02:53:18;80.32;;;44.65;;
52508;SDS011;38420;53.150;6.370;2023-02-15T02:58:15;82.38;;;46.83;;
52508;SDS011;38420;53.150;6.370;2023-02-15T03:00:55;84.60;;;45.65;;
52508;SDS011;38420;53.150;6.370;2023-02-15T03:03:37;77.70;;;43.72;;
52508;SDS011;38420;53.150;6.370;2023-02-15T03:06:14;82.35;;;46.55;;
52508;SDS011;38420;53.150;6.370;2023-02-15T03:08:54;78.97;;;42.38;;
52508;SDS011;38420;53.150;6.370;2023-02-15T03:11:28;82.30;;;45.10;;
52508;SDS011;38420;53.150;6.370;2023-02-15T03:13:54;75.57;;;42.25;;
52508;SDS011;38420;53.150;6.370;2023-02-15T03:16:21;74.38;;;42.25;;
52508;SDS011;38420;53.150;6.370;2023-02-15T03:18:58;76.65;;;43.45;;
52508;SDS011;38420;53.150;6.370;2023-02-15T03:21:44;72.60;;;41.17;;
52508;SDS011;38420;53.150;6.370;2023-02-15T03:24:34;79.05;;;44.72;;
52508;SDS011;38420;53.150;6.370;2023-02-15T03:27:06;83.40;;;46.63;;
52508;SDS011;38420;53.150;6.370;2023-02-15T03:29:37;82.10;;;44.80;;
52508;SDS011;38420;53.150;6.370;2023-02-15T03:32:05;80.03;;;46.47;;
52508;SDS011;38420;53.150;6.370;2023-02-15T03:34:35;81.10;;;45.65;;
52508;SDS011;38420;53.150;6.370;2023-02-15T03:37:11;77.18;;;45.85;;
52508;SDS011;38420;53.150;6.370;2023-02-15T03:42:52;75.82;;;44.70;;
52508;SDS011;38420;53.150;6.370;2023-02-15T03:45:27;72.95;;;41.75;;
52508;SDS011;38420;53.150;6.370;2023-02-15T03:47:55;81.25;;;45.90;;
52508;SDS011;38420;53.150;6.370;2023-02-15T03:50:26;75.72;;;44.97;;
52508;SDS011;38420;53.150;6.370;2023-02-15T03:53:13;82.85;;;46.67;;
52508;SDS011;38420;53.150;6.370;2023-02-15T03:55:45;82.35;;;47.92;;
52508;SDS011;38420;53.150;6.370;2023-02-15T03:58:12;87.22;;;47.88;;
52508;SDS011;38420;53.150;6.370;2023-02-15T04:00:59;73.15;;;42.90;;
52508;SDS011;38420;53.150;6.370;2023-02-15T04:06:20;90.50;;;49.65;;
52508;SDS011;38420;53.150;6.370;2023-02-15T04:08:46;93.75;;;50.92;;
52508;SDS011;38420;53.150;6.370;2023-02-15T04:11:30;100.03;;;51.05;;
52508;SDS011;38420;53.150;6.370;2023-02-15T04:13:56;95.63;;;50.65;;
52508;SDS011;38420;53.150;6.370;2023-02-15T04:16:25;97.53;;;52.78;;
52508;SDS011;38420;53.150;6.370;2023-02-15T04:18:51;91.72;;;50.47;;
52508;SDS011;38420;53.150;6.370;2023-02-15T04:21:35;100.35;;;52.63;;
52508;SDS011;38420;53.150;6.370;2023-02-15T04:24:19;92.57;;;50.25;;
52508;SDS011;38420;53.150;6.370;2023-02-15T04:27:04;89.70;;;49.83;;
52508;SDS011;38420;53.150;6.370;2023-02-15T04:29:30;94.43;;;50.03;;
52508;SDS011;38420;53.150;6.370;2023-02-15T04:31:57;98.55;;;52.78;;
52508;SDS011;38420;53.150;6.370;2023-02-15T04:34:23;98.00;;;53.08;;
52508;SDS011;38420;53.150;6.370;2023-02-15T04:36:49;103.32;;;52.63;;
52508;SDS011;38420;53.150;6.370;2023-02-15T04:39:15;98.25;;;51.33;;
52508;SDS011;38420;53.150;6.370;2023-02-15T04:41:42;92.78;;;50.28;;
52508;SDS011;38420;53.150;6.370;2023-02-15T04:44:08;94.95;;;50.35;;
52508;SDS011;38420;53.150;6.370;2023-02-15T04:46:34;103.85;;;53.13;;
52508;SDS011;38420;53.150;6.370;2023-02-15T04:49:00;111.05;;;54.92;;
52508;SDS011;38420;53.150;6.370;2023-02-15T04:51:25;123.57;;;59.00;;
52508;SDS011;38420;53.150;6.370;2023-02-15T04:53:51;118.75;;;58.50;;
52508;SDS011;38420;53.150;6.370;2023-02-15T04:56:20;128.10;;;59.20;;
52508;SDS011;38420;53.150;6.370;2023-02-15T04:58:46;105.30;;;54.42;;
52508;SDS011;38420;53.150;6.370;2023-02-15T05:01:12;118.50;;;57.90;;
52508;SDS011;38420;53.150;6.370;2023-02-15T05:03:38;121.93;;;60.05;;
52508;SDS011;38420;53.150;6.370;2023-02-15T05:06:04;114.03;;;55.90;;
52508;SDS011;38420;53.150;6.370;2023-02-15T05:08:30;105.07;;;53.55;;
52508;SDS011;38420;53.150;6.370;2023-02-15T05:10:56;111.45;;;56.85;;
52508;SDS011;38420;53.150;6.370;2023-02-15T05:13:22;130.88;;;59.95;;
52508;SDS011;38420;53.150;6.370;2023-02-15T05:15:52;137.30;;;64.30;;
52508;SDS011;38420;53.150;6.370;2023-02-15T05:18:18;124.05;;;60.03;;
52508;SDS011;38420;53.150;6.370;2023-02-15T05:20:45;150.73;;;67.63;;
52508;SDS011;38420;53.150;6.370;2023-02-15T05:23:11;149.00;;;68.38;;
52508;SDS011;38420;53.150;6.370;2023-02-15T05:25:37;148.95;;;65.25;;
52508;SDS011;38420;53.150;6.370;2023-02-15T05:28:21;145.55;;;67.55;;
52508;SDS011;38420;53.150;6.370;2023-02-15T05:30:48;147.10;;;72.35;;
52508;SDS011;38420;53.150;6.370;2023-02-15T05:33:16;182.10;;;75.57;;
52508;SDS011;38420;53.150;6.370;2023-02-15T05:35:42;183.60;;;78.10;;
52508;SDS011;38420;53.150;6.370;2023-02-15T05:38:08;193.27;;;80.38;;
52508;SDS011;38420;53.150;6.370;2023-02-15T05:40:34;224.38;;;85.82;;
52508;SDS011;38420;53.150;6.370;2023-02-15T05:42:59;199.85;;;83.45;;
52508;SDS011;38420;53.150;6.370;2023-02-15T05:45:25;160.25;;;73.35;;
52508;SDS011;38420;53.150;6.370;2023-02-15T05:47:51;247.10;;;88.65;;
52508;SDS011;38420;53.150;6.370;2023-02-15T05:50:16;212.40;;;87.05;;
52508;SDS011;38420;53.150;6.370;2023-02-15T05:52:42;210.32;;;87.05;;
52508;SDS011;38420;53.150;6.370;2023-02-15T05:55:08;216.18;;;88.35;;
52508;SDS011;38420;53.150;6.370;2023-02-15T05:57:34;224.52;;;88.50;;
52508;SDS011;38420;53.150;6.370;2023-02-15T06:00:00;240.15;;;92.03;;
52508;SDS011;38420;53.150;6.370;2023-02-15T06:02:29;203.60;;;84.55;;
52508;SDS011;38420;53.150;6.370;2023-02-15T06:04:57;180.50;;;79.80;;
52508;SDS011;38420;53.150;6.370;2023-02-15T06:07:23;247.70;;;93.35;;
52508;SDS011;38420;53.150;6.370;2023-02-15T06:09:49;283.42;;;98.25;;
52508;SDS011;38420;53.150;6.370;2023-02-15T06:12:14;222.70;;;89.85;;
52508;SDS011;38420;53.150;6.370;2023-02-15T06:14:40;260.88;;;93.35;;
52508;SDS011;38420;53.150;6.370;2023-02-15T06:17:05;245.65;;;92.35;;
52508;SDS011;38420;53.150;6.370;2023-02-15T06:19:31;243.73;;;93.07;;
52508;SDS011;38420;53.150;6.370;2023-02-15T06:21:57;251.93;;;93.10;;
52508;SDS011;38420;53.150;6.370;2023-02-15T06:24:22;217.07;;;87.38;;
52508;SDS011;38420;53.150;6.370;2023-02-15T06:26:48;229.27;;;91.82;;
52508;SDS011;38420;53.150;6.370;2023-02-15T06:29:14;268.15;;;95.90;;
52508;SDS011;38420;53.150;6.370;2023-02-15T06:31:39;213.30;;;93.90;;
52508;SDS011;38420;53.150;6.370;2023-02-15T06:34:05;231.05;;;92.60;;
52508;SDS011;38420;53.150;6.370;2023-02-15T06:36:31;233.60;;;95.00;;
52508;SDS011;38420;53.150;6.370;2023-02-15T06:38:57;209.95;;;91.60;;
52508;SDS011;38420;53.150;6.370;2023-02-15T06:41:22;236.68;;;93.55;;
52508;SDS011;38420;53.150;6.370;2023-02-15T06:43:49;266.77;;;97.40;;
52508;SDS011;38420;53.150;6.370;2023-02-15T06:46:15;275.83;;;98.78;;
52508;SDS011;38420;53.150;6.370;2023-02-15T06:48:40;230.50;;;92.80;;
52508;SDS011;38420;53.150;6.370;2023-02-15T06:51:06;209.90;;;89.00;;
52508;SDS011;38420;53.150;6.370;2023-02-15T06:53:32;183.38;;;84.15;;
52508;SDS011;38420;53.150;6.370;2023-02-15T06:56:04;191.15;;;82.72;;
52508;SDS011;38420;53.150;6.370;2023-02-15T06:58:33;194.45;;;87.07;;
52508;SDS011;38420;53.150;6.370;2023-02-15T07:01:02;191.10;;;84.53;;
52508;SDS011;38420;53.150;6.370;2023-02-15T07:03:28;185.20;;;84.88;;
52508;SDS011;38420;53.150;6.370;2023-02-15T07:05:58;189.30;;;84.97;;
52508;SDS011;38420;53.150;6.370;2023-02-15T07:08:25;187.32;;;82.50;;
52508;SDS011;38420;53.150;6.370;2023-02-15T07:10:51;203.95;;;83.53;;
52508;SDS011;38420;53.150;6.370;2023-02-15T07:13:18;188.32;;;83.32;;
52508;SDS011;38420;53.150;6.370;2023-02-15T07:15:44;202.80;;;85.38;;
52508;SDS011;38420;53.150;6.370;2023-02-15T07:18:10;226.82;;;90.00;;
52508;SDS011;38420;53.150;6.370;2023-02-15T07:20:36;185.65;;;84.20;;
52508;SDS011;38420;53.150;6.370;2023-02-15T07:23:03;188.52;;;85.88;;
52508;SDS011;38420;53.150;6.370;2023-02-15T07:25:30;197.30;;;86.15;;
52508;SDS011;38420;53.150;6.370;2023-02-15T07:27:59;192.50;;;83.18;;
52508;SDS011;38420;53.150;6.370;2023-02-15T07:30:26;183.95;;;83.35;;
52508;SDS011;38420;53.150;6.370;2023-02-15T07:32:56;177.45;;;81.53;;
52508;SDS011;38420;53.150;6.370;2023-02-15T07:35:50;173.90;;;78.78;;
52508;SDS011;38420;53.150;6.370;2023-02-15T07:38:18;170.93;;;81.45;;
52508;SDS011;38420;53.150;6.370;2023-02-15T07:40:44;169.48;;;77.18;;
52508;SDS011;38420;53.150;6.370;2023-02-15T07:43:10;166.43;;;76.38;;
52508;SDS011;38420;53.150;6.370;2023-02-15T07:45:36;167.93;;;76.72;;
52508;SDS011;38420;53.150;6.370;2023-02-15T07:48:02;152.45;;;73.07;;
52508;SDS011;38420;53.150;6.370;2023-02-15T07:50:28;169.60;;;76.50;;
52508;SDS011;38420;53.150;6.370;2023-02-15T07:52:54;159.77;;;75.15;;
52508;SDS011;38420;53.150;6.370;2023-02-15T07:55:20;181.88;;;77.80;;
52508;SDS011;38420;53.150;6.370;2023-02-15T07:57:46;173.45;;;74.53;;
52508;SDS011;38420;53.150;6.370;2023-02-15T08:00:13;167.32;;;74.28;;
52508;SDS011;38420;53.150;6.370;2023-02-15T08:02:40;158.30;;;73.35;;
52508;SDS011;38420;53.150;6.370;2023-02-15T08:05:06;144.13;;;71.35;;
52508;SDS011;38420;53.150;6.370;2023-02-15T08:07:32;149.30;;;71.75;;
52508;SDS011;38420;53.150;6.370;2023-02-15T08:09:58;143.85;;;69.57;;
52508;SDS011;38420;53.150;6.370;2023-02-15T08:12:26;145.18;;;70.93;;
52508;SDS011;38420;53.150;6.370;2023-02-15T08:14:51;138.40;;;70.82;;
52508;SDS011;38420;53.150;6.370;2023-02-15T08:17:17;145.85;;;76.18;;
52508;SDS011;38420;53.150;6.370;2023-02-15T08:19:43;142.63;;;70.30;;
52508;SDS011;38420;53.150;6.370;2023-02-15T08:22:10;141.10;;;68.47;;
52508;SDS011;38420;53.150;6.370;2023-02-15T08:24:38;139.25;;;69.97;;
52508;SDS011;38420;53.150;6.370;2023-02-15T08:27:04;129.73;;;65.90;;
52508;SDS011;38420;53.150;6.370;2023-02-15T08:29:31;134.80;;;65.50;;
52508;SDS011;38420;53.150;6.370;2023-02-15T08:31:59;129.05;;;62.22;;
52508;SDS011;38420;53.150;6.370;2023-02-15T08:34:27;123.80;;;64.15;;
52508;SDS011;38420;53.150;6.370;2023-02-15T08:36:54;119.38;;;61.13;;
52508;SDS011;38420;53.150;6.370;2023-02-15T08:39:20;120.70;;;60.13;;
52508;SDS011;38420;53.150;6.370;2023-02-15T08:41:46;111.10;;;59.72;;
52508;SDS011;38420;53.150;6.370;2023-02-15T08:44:14;136.75;;;79.93;;
52508;SDS011;38420;53.150;6.370;2023-02-15T08:46:42;114.60;;;59.65;;
52508;SDS011;38420;53.150;6.370;2023-02-15T08:49:15;114.32;;;59.17;;
52508;SDS011;38420;53.150;6.370;2023-02-15T08:51:42;112.40;;;60.35;;
52508;SDS011;38420;53.150;6.370;2023-02-15T08:54:09;122.18;;;60.92;;
52508;SDS011;38420;53.150;6.370;2023-02-15T08:56:39;109.15;;;58.33;;
52508;SDS011;38420;53.150;6.370;2023-02-15T08:59:05;112.03;;;58.45;;
52508;SDS011;38420;53.150;6.370;2023-02-15T09:01:36;100.25;;;54.42;;
52508;SDS011;38420;53.150;6.370;2023-02-15T09:04:03;107.88;;;57.10;;
52508;SDS011;38420;53.150;6.370;2023-02-15T09:06:30;109.95;;;55.53;;
52508;SDS011;38420;53.150;6.370;2023-02-15T09:08:56;106.38;;;58.42;;
52508;SDS011;38420;53.150;6.370;2023-02-15T09:11:23;107.95;;;55.65;;
52508;SDS011;38420;53.150;6.370;2023-02-15T09:14:00;101.18;;;56.35;;
52508;SDS011;38420;53.150;6.370;2023-02-15T09:16:29;99.97;;;53.25;;
52508;SDS011;38420;53.150;6.370;2023-02-15T09:18:56;96.60;;;54.50;;
52508;SDS011;38420;53.150;6.370;2023-02-15T09:21:29;88.38;;;50.15;;
52508;SDS011;38420;53.150;6.370;2023-02-15T09:23:57;97.45;;;52.63;;
52508;SDS011;38420;53.150;6.370;2023-02-15T09:26:28;84.68;;;49.17;;
52508;SDS011;38420;53.150;6.370;2023-02-15T09:28:56;98.00;;;67.70;;
52508;SDS011;38420;53.150;6.370;2023-02-15T09:31:25;75.55;;;47.13;;
52508;SDS011;38420;53.150;6.370;2023-02-15T09:33:52;67.65;;;42.08;;
52508;SDS011;38420;53.150;6.370;2023-02-15T09:36:19;63.28;;;41.53;;
52508;SDS011;38420;53.150;6.370;2023-02-15T10:01:53;49.40;;;32.42;;
52508;SDS011;38420;53.150;6.370;2023-02-15T10:13:09;55.05;;;33.20;;
52508;SDS011;38420;53.150;6.370;2023-02-15T10:21:12;60.50;;;35.83;;
52508;SDS011;38420;53.150;6.370;2023-02-15T10:23:52;55.53;;;34.97;;
52508;SDS011;38420;53.150;6.370;2023-02-15T10:27:03;53.38;;;33.65;;
52508;SDS011;38420;53.150;6.370;2023-02-15T10:29:35;52.67;;;33.10;;
52508;SDS011;38420;53.150;6.370;2023-02-15T10:32:05;57.50;;;35.28;;
52508;SDS011;38420;53.150;6.370;2023-02-15T10:34:51;55.83;;;33.97;;
52508;SDS011;38420;53.150;6.370;2023-02-15T10:43:32;56.17;;;35.28;;
52508;SDS011;38420;53.150;6.370;2023-02-15T10:49:12;61.22;;;36.10;;
52508;SDS011;38420;53.150;6.370;2023-02-15T10:54:35;58.15;;;35.60;;
52508;SDS011;38420;53.150;6.370;2023-02-15T10:57:15;60.90;;;35.85;;
52508;SDS011;38420;53.150;6.370;2023-02-15T11:07:59;62.55;;;35.05;;
52508;SDS011;38420;53.150;6.370;2023-02-15T11:10:34;66.22;;;37.88;;
52508;SDS011;38420;53.150;6.370;2023-02-15T11:13:09;60.00;;;35.10;;
52508;SDS011;38420;53.150;6.370;2023-02-15T11:15:53;60.65;;;37.72;;
52508;SDS011;38420;53.150;6.370;2023-02-15T11:18:32;61.42;;;37.17;;
52508;SDS011;38420;53.150;6.370;2023-02-15T11:21:02;61.85;;;37.00;;
52508;SDS011;38420;53.150;6.370;2023-02-15T11:23:29;62.45;;;36.08;;
52508;SDS011;38420;53.150;6.370;2023-02-15T11:26:00;62.53;;;36.55;;
52508;SDS011;38420;53.150;6.370;2023-02-15T11:28:52;62.00;;;35.67;;
52508;SDS011;38420;53.150;6.370;2023-02-15T11:31:22;59.35;;;36.85;;
52508;SDS011;38420;53.150;6.370;2023-02-15T11:33:51;58.28;;;35.28;;
52508;SDS011;38420;53.150;6.370;2023-02-15T11:36:24;63.55;;;36.05;;
52508;SDS011;38420;53.150;6.370;2023-02-15T11:38:58;60.72;;;36.28;;
52508;SDS011;38420;53.150;6.370;2023-02-15T11:41:34;57.67;;;36.60;;
52508;SDS011;38420;53.150;6.370;2023-02-15T11:44:16;58.35;;;35.05;;
52508;SDS011;38420;53.150;6.370;2023-02-15T11:46:47;61.00;;;36.75;;
52508;SDS011;38420;53.150;6.370;2023-02-15T11:51:47;58.88;;;35.30;;
52508;SDS011;38420;53.150;6.370;2023-02-15T11:54:15;112.75;;;68.38;;
52508;SDS011;38420;53.150;6.370;2023-02-15T11:56:43;57.75;;;36.50;;
52508;SDS011;38420;53.150;6.370;2023-02-15T11:59:14;62.58;;;37.05;;
52508;SDS011;38420;53.150;6.370;2023-02-15T12:01:46;58.50;;;33.95;;
52508;SDS011;38420;53.150;6.370;2023-02-15T12:06:55;57.13;;;34.50;;
52508;SDS011;38420;53.150;6.370;2023-02-15T12:11:50;57.08;;;35.28;;
52508;SDS011;38420;53.150;6.370;2023-02-15T12:14:15;57.00;;;34.25;;
52508;SDS011;38420;53.150;6.370;2023-02-15T12:16:45;56.50;;;34.13;;
52508;SDS011;38420;53.150;6.370;2023-02-15T12:19:36;52.92;;;33.92;;
52508;SDS011;38420;53.150;6.370;2023-02-15T12:22:05;56.03;;;34.30;;
52508;SDS011;38420;53.150;6.370;2023-02-15T12:24:44;54.17;;;33.65;;
52508;SDS011;38420;53.150;6.370;2023-02-15T12:27:16;55.25;;;33.65;;
52508;SDS011;38420;53.150;6.370;2023-02-15T12:32:22;58.85;;;34.15;;
52508;SDS011;38420;53.150;6.370;2023-02-15T12:34:51;58.22;;;34.65;;
52508;SDS011;38420;53.150;6.370;2023-02-15T12:37:37;62.40;;;38.65;;
52508;SDS011;38420;53.150;6.370;2023-02-15T12:40:25;57.88;;;36.08;;
52508;SDS011;38420;53.150;6.370;2023-02-15T12:42:54;64.97;;;37.40;;
52508;SDS011;38420;53.150;6.370;2023-02-15T12:45:27;58.42;;;34.40;;
52508;SDS011;38420;53.150;6.370;2023-02-15T12:48:28;60.50;;;36.47;;
52508;SDS011;38420;53.150;6.370;2023-02-15T12:50:47;58.10;;;34.90;;
52508;SDS011;38420;53.150;6.370;2023-02-15T12:53:21;61.03;;;36.50;;
52508;SDS011;38420;53.150;6.370;2023-02-15T12:55:56;62.97;;;35.10;;
52508;SDS011;38420;53.150;6.370;2023-02-15T12:58:24;58.90;;;33.88;;
52508;SDS011;38420;53.150;6.370;2023-02-15T13:03:35;57.83;;;33.13;;
52508;SDS011;38420;53.150;6.370;2023-02-15T13:06:03;55.25;;;31.20;;
52508;SDS011;38420;53.150;6.370;2023-02-15T13:08:34;55.93;;;32.80;;
52508;SDS011;38420;53.150;6.370;2023-02-15T13:11:11;54.15;;;32.78;;
52508;SDS011;38420;53.150;6.370;2023-02-15T13:16:24;55.33;;;31.83;;
52508;SDS011;38420;53.150;6.370;2023-02-15T13:19:19;54.40;;;31.08;;
52508;SDS011;38420;53.150;6.370;2023-02-15T13:22:00;53.38;;;31.40;;
52508;SDS011;38420;53.150;6.370;2023-02-15T13:24:36;54.72;;;31.77;;
52508;SDS011;38420;53.150;6.370;2023-02-15T13:27:13;57.15;;;32.08;;
52508;SDS011;38420;53.150;6.370;2023-02-15T13:29:45;57.08;;;31.60;;
52508;SDS011;38420;53.150;6.370;2023-02-15T13:32:23;57.72;;;33.38;;
52508;SDS011;38420;53.150;6.370;2023-02-15T13:34:57;51.42;;;32.28;;
52508;SDS011;38420;53.150;6.370;2023-02-15T13:37:37;55.58;;;31.13;;
52508;SDS011;38420;53.150;6.370;2023-02-15T13:43:33;51.92;;;30.52;;
52508;SDS011;38420;53.150;6.370;2023-02-15T13:51:48;52.03;;;29.92;;
52508;SDS011;38420;53.150;6.370;2023-02-15T13:57:19;52.03;;;32.20;;
52508;SDS011;38420;53.150;6.370;2023-02-15T14:00:08;48.65;;;29.00;;
52508;SDS011;38420;53.150;6.370;2023-02-15T14:14:22;52.30;;;30.05;;
52508;SDS011;38420;53.150;6.370;2023-02-15T14:20:00;48.60;;;29.80;;
52508;SDS011;38420;53.150;6.370;2023-02-15T14:22:43;50.03;;;29.83;;
52508;SDS011;38420;53.150;6.370;2023-02-15T14:30:36;48.50;;;29.08;;
52508;SDS011;38420;53.150;6.370;2023-02-15T14:33:08;48.28;;;28.90;;
52508;SDS011;38420;53.150;6.370;2023-02-15T14:35:49;46.33;;;28.13;;
52508;SDS011;38420;53.150;6.370;2023-02-15T14:38:20;48.42;;;28.88;;
52508;SDS011;38420;53.150;6.370;2023-02-15T14:41:11;49.65;;;30.05;;
52508;SDS011;38420;53.150;6.370;2023-02-15T14:43:50;48.80;;;29.13;;
52508;SDS011;38420;53.150;6.370;2023-02-15T14:56:46;48.60;;;28.90;;
52508;SDS011;38420;53.150;6.370;2023-02-15T15:07:47;44.10;;;27.23;;
52508;SDS011;38420;53.150;6.370;2023-02-15T15:15:10;51.17;;;30.50;;
52508;SDS011;38420;53.150;6.370;2023-02-15T15:18:02;45.25;;;27.58;;
52508;SDS011;38420;53.150;6.370;2023-02-15T15:20:44;46.17;;;28.42;;
52508;SDS011;38420;53.150;6.370;2023-02-15T15:25:44;48.97;;;28.00;;
52508;SDS011;38420;53.150;6.370;2023-02-15T15:31:21;53.15;;;30.38;;
52508;SDS011;38420;53.150;6.370;2023-02-15T15:34:04;50.35;;;30.00;;
52508;SDS011;38420;53.150;6.370;2023-02-15T15:42:01;55.15;;;33.03;;
52508;SDS011;38420;53.150;6.370;2023-02-15T15:49:59;51.72;;;30.77;;
52508;SDS011;38420;53.150;6.370;2023-02-15T15:52:26;52.97;;;30.55;;
52508;SDS011;38420;53.150;6.370;2023-02-15T15:54:55;52.20;;;31.23;;
52508;SDS011;38420;53.150;6.370;2023-02-15T15:59:52;48.50;;;30.63;;
52508;SDS011;38420;53.150;6.370;2023-02-15T16:02:19;50.70;;;30.15;;
52508;SDS011;38420;53.150;6.370;2023-02-15T16:04:45;53.70;;;32.00;;
52508;SDS011;38420;53.150;6.370;2023-02-15T16:12:35;51.13;;;30.92;;
52508;SDS011;38420;53.150;6.370;2023-02-15T16:18:10;51.80;;;31.13;;
52508;SDS011;38420;53.150;6.370;2023-02-15T16:20:41;51.70;;;30.75;;
52508;SDS011;38420;53.150;6.370;2023-02-15T16:26:17;51.20;;;31.05;;
52508;SDS011;38420;53.150;6.370;2023-02-15T16:28:50;56.25;;;32.55;;
52508;SDS011;38420;53.150;6.370;2023-02-15T16:31:18;51.10;;;31.20;;
52508;SDS011;38420;53.150;6.370;2023-02-15T16:33:45;54.70;;;31.08;;
52508;SDS011;38420;53.150;6.370;2023-02-15T16:38:59;52.55;;;32.40;;
52508;SDS011;38420;53.150;6.370;2023-02-15T16:41:32;59.90;;;32.95;;
52508;SDS011;38420;53.150;6.370;2023-02-15T16:44:02;54.10;;;32.60;;
52508;SDS011;38420;53.150;6.370;2023-02-15T16:46:38;52.20;;;31.60;;
52508;SDS011;38420;53.150;6.370;2023-02-15T16:49:08;54.63;;;33.58;;
52508;SDS011;38420;53.150;6.370;2023-02-15T16:52:10;53.90;;;32.83;;
52508;SDS011;38420;53.150;6.370;2023-02-15T16:54:41;57.15;;;34.13;;
52508;SDS011;38420;53.150;6.370;2023-02-15T16:57:30;55.30;;;31.42;;
52508;SDS011;38420;53.150;6.370;2023-02-15T17:00:03;56.22;;;33.30;;
52508;SDS011;38420;53.150;6.370;2023-02-15T17:02:32;60.47;;;32.47;;
52508;SDS011;38420;53.150;6.370;2023-02-15T17:05:06;57.60;;;33.80;;
52508;SDS011;38420;53.150;6.370;2023-02-15T17:07:39;57.55;;;33.00;;
52508;SDS011;38420;53.150;6.370;2023-02-15T17:10:25;58.50;;;34.63;;
52508;SDS011;38420;53.150;6.370;2023-02-15T17:12:55;59.80;;;33.47;;
52508;SDS011;38420;53.150;6.370;2023-02-15T17:15:29;73.22;;;41.33;;
52508;SDS011;38420;53.150;6.370;2023-02-15T17:18:08;62.63;;;37.30;;
52508;SDS011;38420;53.150;6.370;2023-02-15T17:20:45;61.97;;;36.50;;
52508;SDS011;38420;53.150;6.370;2023-02-15T17:23:20;66.53;;;36.83;;
52508;SDS011;38420;53.150;6.370;2023-02-15T17:26:15;60.35;;;34.47;;
52508;SDS011;38420;53.150;6.370;2023-02-15T17:28:45;61.17;;;35.92;;
52508;SDS011;38420;53.150;6.370;2023-02-15T17:31:14;58.67;;;33.90;;
52508;SDS011;38420;53.150;6.370;2023-02-15T17:33:43;60.25;;;36.20;;
52508;SDS011;38420;53.150;6.370;2023-02-15T17:36:13;60.33;;;33.53;;
52508;SDS011;38420;53.150;6.370;2023-02-15T17:41:24;63.20;;;35.38;;
52508;SDS011;38420;53.150;6.370;2023-02-15T17:43:55;63.00;;;34.47;;
52508;SDS011;38420;53.150;6.370;2023-02-15T17:46:21;62.65;;;37.92;;
52508;SDS011;38420;53.150;6.370;2023-02-15T17:48:48;64.85;;;39.33;;